Time;durP1;ratioP1;P1;durP2;ratioP2;P2;SDS_P1;SDS_P2;PMS_P1;PMS_P2;Temp;Humidity;BMP_temperature;BMP_pressure;BME280_temperature;BME280_humidity;BME280_pressure;Samples;Min_cycle;Max_cycle;Signal;HPM_P1;HPM_P2
2023/11/11 06:09:24;;;;;;;1999.90;999.90;;;;;;;;;;6223534;22;20389;31
2023/11/11 06:11:50;;;;;;;1999.90;999.90;;;;;;;;;;6209065;23;20021;-66
2023/11/11 06:14:17;;;;;;;1999.90;999.90;;;;;;;;;;6185391;23;20008;-66
2023/11/11 06:16:44;;;;;;;1999.90;999.90;;;;;;;;;;6212252;23;20001;-66
2023/11/11 06:19:10;;;;;;;1999.90;999.90;;;;;;;;;;6214255;23;20012;-66
2023/11/11 06:21:37;;;;;;;1999.90;999.90;;;;;;;;;;6214057;23;20051;-65
2023/11/11 06:24:08;;;;;;;1999.90;999.90;;;;;;;;;;6213801;23;20009;-65
2023/11/11 06:26:36;;;;;;;1999.90;999.90;;;;;;;;;;6213892;23;20294;-65
2023/11/11 06:29:03;;;;;;;1999.90;999.90;;;;;;;;;;6213665;23;20389;-64
2023/11/11 06:31:32;;;;;;;1999.90;999.90;;;;;;;;;;6187207;23;20453;-66
2023/11/11 06:33:58;;;;;;;1999.90;999.90;;;;;;;;;;6213694;23;20005;-66
2023/11/11 06:36:24;;;;;;;1999.90;999.90;;;;;;;;;;6213890;23;20005;-67
2023/11/11 06:38:51;;;;;;;1999.90;999.90;;;;;;;;;;6213910;23;20007;-67
2023/11/11 06:41:18;;;;;;;1999.90;999.90;;;;;;;;;;6213861;23;20036;-66
2023/11/11 06:43:45;;;;;;;1999.90;999.90;;;;;;;;;;6213803;23;20013;-66
2023/11/11 06:46:11;;;;;;;1999.90;999.90;;;;;;;;;;6213599;23;20004;-66
2023/11/11 06:48:37;;;;;;;1999.90;999.90;;;;;;;;;;6213695;23;20008;-66
2023/11/11 06:51:04;;;;;;;1999.90;999.90;;;;;;;;;;6213899;23;20001;-67
2023/11/11 06:53:30;;;;;;;1999.90;999.90;;;;;;;;;;6213439;23;20011;-67
2023/11/11 06:55:56;;;;;;;1999.90;999.90;;;;;;;;;;6187393;23;20015;-66
2023/11/11 06:58:22;;;;;;;1999.90;999.90;;;;;;;;;;6213796;23;20006;-67
2023/11/11 07:00:49;;;;;;;1999.90;999.90;;;;;;;;;;6213585;23;20012;-67
2023/11/11 07:03:15;;;;;;;1999.90;999.90;;;;;;;;;;6214278;23;20000;-66
2023/11/11 07:05:41;;;;;;;1999.90;999.90;;;;;;;;;;6187077;23;20075;-67
2023/11/11 07:08:07;;;;;;;1999.90;999.90;;;;;;;;;;6214277;23;20008;-66
2023/11/11 07:10:37;;;;;;;1999.90;999.90;;;;;;;;;;6228976;23;20016;-66
2023/11/11 07:13:04;;;;;;;1999.90;999.90;;;;;;;;;;6244092;23;20020;-68
2023/11/11 07:15:30;;;;;;;1999.90;999.90;;;;;;;;;;6217229;23;20074;-67
2023/11/11 07:17:57;;;;;;;1999.90;999.90;;;;;;;;;;6244185;23;20008;-66
2023/11/11 07:20:23;;;;;;;1999.90;999.90;;;;;;;;;;6243664;23;20004;-69
2023/11/11 07:22:49;;;;;;;1999.90;999.90;;;;;;;;;;6243715;23;20011;-64
2023/11/11 07:25:16;;;;;;;1999.90;999.90;;;;;;;;;;6243615;23;20336;-66
2023/11/11 07:27:42;;;;;;;1999.90;999.90;;;;;;;;;;6217117;23;20004;-71
2023/11/11 07:30:12;;;;;;;1999.90;999.90;;;;;;;;;;6243375;23;20022;-68
2023/11/11 07:32:39;;;;;;;1999.90;999.90;;;;;;;;;;6243653;23;20018;-69
2023/11/11 07:35:07;;;;;;;1999.90;999.90;;;;;;;;;;6243782;23;20424;-69
2023/11/11 07:37:33;;;;;;;1999.90;999.90;;;;;;;;;;6244199;23;20015;-68
2023/11/11 07:39:59;;;;;;;1999.90;999.90;;;;;;;;;;6217433;23;20096;-67
2023/11/11 07:42:25;;;;;;;1999.90;999.90;;;;;;;;;;6243729;23;20008;-66
2023/11/11 07:44:53;;;;;;;1999.90;999.90;;;;;;;;;;6243255;23;20492;-66
2023/11/11 07:47:19;;;;;;;1999.90;999.90;;;;;;;;;;6243526;23;19997;-67
2023/11/11 07:49:45;;;;;;;1999.90;999.90;;;;;;;;;;6243569;23;20376;-68
2023/11/11 07:52:11;;;;;;;1999.90;999.90;;;;;;;;;;6243107;23;20364;-68
2023/11/11 07:54:37;;;;;;;1999.90;999.90;;;;;;;;;;6243308;23;20074;-68
2023/11/11 07:57:03;;;;;;;1999.90;999.90;;;;;;;;;;6243307;23;20000;-67
2023/11/11 07:59:29;;;;;;;1999.90;999.90;;;;;;;;;;6216112;23;20022;-67
2023/11/11 08:01:58;;;;;;;1999.90;999.90;;;;;;;;;;6243534;23;20075;-67
2023/11/11 08:04:25;;;;;;;1999.90;999.90;;;;;;;;;;6243371;23;20019;-69
2023/11/11 08:06:52;;;;;;;1999.90;999.90;;;;;;;;;;6242195;23;20457;-66
2023/11/11 08:09:20;;;;;;;1999.90;999.90;;;;;;;;;;6243698;23;20024;-67
2023/11/11 08:11:47;;;;;;;1999.90;999.90;;;;;;;;;;6243421;23;20008;-68
2023/11/11 08:14:13;;;;;;;1999.90;999.90;;;;;;;;;;6243266;23;20046;-70
2023/11/11 08:16:39;;;;;;;1999.90;999.90;;;;;;;;;;6243511;23;20369;-70
2023/11/11 08:19:05;;;;;;;1999.90;999.90;;;;;;;;;;6243287;23;20346;-70
2023/11/11 08:21:32;;;;;;;1999.90;999.90;;;;;;;;;;6243401;23;20072;-70
2023/11/11 08:23:58;;;;;;;1999.90;999.90;;;;;;;;;;6243046;23;20004;-64
2023/11/11 08:26:25;;;;;;;1999.90;999.90;;;;;;;;;;6242415;23;20035;-69
2023/11/11 08:28:51;;;;;;;1999.90;999.90;;;;;;;;;;6216491;23;20507;-69
2023/11/11 08:31:17;;;;;;;1999.90;999.90;;;;;;;;;;6216385;23;20008;-66
2023/11/11 08:33:44;;;;;;;1999.90;999.90;;;;;;;;;;6243546;23;19996;-65
2023/11/11 08:36:10;;;;;;;1999.90;999.90;;;;;;;;;;6243113;23;20384;-69
2023/11/11 08:38:36;;;;;;;1999.90;999.90;;;;;;;;;;6215563;23;20432;-67
2023/11/11 08:41:02;;;;;;;1999.90;999.90;;;;;;;;;;6243130;23;20473;-67
2023/11/11 08:43:28;;;;;;;1999.90;999.90;;;;;;;;;;6242351;23;20000;-66
2023/11/11 08:45:58;;;;;;;1999.90;999.90;;;;;;;;;;6242930;23;20375;-68
2023/11/11 08:48:24;;;;;;;1999.90;999.90;;;;;;;;;;6215671;23;20154;-64
2023/11/11 08:50:51;;;;;;;1999.90;999.90;;;;;;;;;;6243281;23;19996;-69
2023/11/11 08:53:17;;;;;;;1999.90;999.90;;;;;;;;;;6242764;23;20000;-67
2023/11/11 08:55:43;;;;;;;1999.90;999.90;;;;;;;;;;6242780;23;20001;-66
2023/11/11 08:58:09;;;;;;;1999.90;999.90;;;;;;;;;;6243085;23;20004;-64
2023/11/11 09:00:35;;;;;;;1999.90;999.90;;;;;;;;;;6243312;23;20340;-66
2023/11/11 09:03:02;;;;;;;1999.90;999.90;;;;;;;;;;6242611;23;20050;-65
2023/11/11 09:05:28;;;;;;;1999.90;999.90;;;;;;;;;;6242695;23;20001;-66
2023/11/11 09:07:54;;;;;;;1999.90;999.90;;;;;;;;;;6243286;23;20063;-67
2023/11/11 09:10:20;;;;;;;1999.90;999.90;;;;;;;;;;6242284;23;20066;-65
2023/11/11 09:12:48;;;;;;;1999.90;999.90;;;;;;;;;;6243031;23;20099;-68
2023/11/11 09:15:16;;;;;;;1999.90;999.90;;;;;;;;;;6242724;23;20379;-69
2023/11/11 09:17:43;;;;;;;1999.90;999.90;;;;;;;;;;6242342;23;20000;-69
2023/11/11 09:20:09;;;;;;;1999.90;999.90;;;;;;;;;;6241905;23;20316;-69
2023/11/11 09:22:36;;;;;;;1999.90;999.90;;;;;;;;;;6241925;23;20154;-72
2023/11/11 09:25:03;;;;;;;1999.90;999.90;;;;;;;;;;6243816;23;20000;-67
2023/11/11 09:27:29;;;;;;;1999.90;999.90;;;;;;;;;;6217580;23;20014;-68
2023/11/11 09:29:55;;;;;;;1999.90;999.90;;;;;;;;;;6242226;23;20035;-67
2023/11/11 09:32:21;;;;;;;1999.90;999.90;;;;;;;;;;6242705;23;20026;-71
2023/11/11 09:34:48;;;;;;;1999.90;999.90;;;;;;;;;;6242413;23;20008;-70
2023/11/11 09:37:14;;;;;;;1999.90;999.90;;;;;;;;;;6242380;23;20087;-69
2023/11/11 09:39:40;;;;;;;1999.90;999.90;;;;;;;;;;6242642;23;20011;-73
2023/11/11 09:42:07;;;;;;;1999.90;999.90;;;;;;;;;;6242801;23;20008;-70
2023/11/11 09:44:33;;;;;;;1999.90;999.90;;;;;;;;;;6242652;23;20054;-70
2023/11/11 09:47:00;;;;;;;1999.90;999.90;;;;;;;;;;6242869;23;20011;-69
2023/11/11 09:49:30;;;;;;;1999.90;999.90;;;;;;;;;;6242605;23;20591;-71
2023/11/11 09:51:57;;;;;;;1999.90;999.90;;;;;;;;;;6242469;23;20000;-67
2023/11/11 09:54:23;;;;;;;1999.90;999.90;;;;;;;;;;6242685;23;20012;-74
2023/11/11 09:56:50;;;;;;;1999.90;999.90;;;;;;;;;;6242819;23;20004;-70
2023/11/11 09:59:16;;;;;;;1999.90;999.90;;;;;;;;;;6242796;23;20008;-69
2023/11/11 10:01:48;;;;;;;1999.90;999.90;;;;;;;;;;6242306;23;19996;-72
2023/11/11 10:04:14;;;;;;;1999.90;999.90;;;;;;;;;;6242696;23;20004;-66
2023/11/11 10:06:41;;;;;;;1999.90;999.90;;;;;;;;;;6242531;23;19997;-69
2023/11/11 10:09:12;;;;;;;1999.90;999.90;;;;;;;;;;6242620;23;20017;-68
2023/11/11 10:11:39;;;;;;;1999.90;999.90;;;;;;;;;;6216364;23;20343;-70
2023/11/11 10:14:08;;;;;;;1999.90;999.90;;;;;;;;;;6216026;23;20062;-73
2023/11/11 10:16:37;;;;;;;1999.90;999.90;;;;;;;;;;6242778;23;20131;-69
2023/11/11 10:19:03;;;;;;;1999.90;999.90;;;;;;;;;;6242564;23;19996;-70
2023/11/11 10:21:29;;;;;;;1999.90;999.90;;;;;;;;;;6242507;23;20008;-69
2023/11/11 10:23:55;;;;;;;1999.90;999.90;;;;;;;;;;6242634;23;20004;-73
2023/11/11 10:26:21;;;;;;;1999.90;999.90;;;;;;;;;;6241873;23;20390;-67
2023/11/11 10:28:50;;;;;;;1999.90;999.90;;;;;;;;;;6242171;23;20051;-69
2023/11/11 10:31:18;;;;;;;1999.90;999.90;;;;;;;;;;6243115;23;19996;-69
2023/11/11 10:33:44;;;;;;;1999.90;999.90;;;;;;;;;;6242713;23;20008;-71
2023/11/11 10:36:11;;;;;;;1999.90;999.90;;;;;;;;;;6242469;23;20004;-72
2023/11/11 10:38:42;;;;;;;1999.90;999.90;;;;;;;;;;6243408;23;20028;-69
2023/11/11 10:41:08;;;;;;;1999.90;999.90;;;;;;;;;;6244077;23;20486;-69
2023/11/11 10:43:35;;;;;;;1999.90;999.90;;;;;;;;;;6242291;23;20046;-69
2023/11/11 10:46:03;;;;;;;1999.90;999.90;;;;;;;;;;6243583;23;20008;-66
2023/11/11 10:48:32;;;;;;;1999.90;999.90;;;;;;;;;;6242696;23;20054;-67
2023/11/11 10:51:00;;;;;;;1999.90;999.90;;;;;;;;;;6242702;23;20080;-69
2023/11/11 10:53:30;;;;;;;1999.90;999.90;;;;;;;;;;6242816;23;20071;-71
2023/11/11 10:55:57;;;;;;;1999.90;999.90;;;;;;;;;;6241674;23;20057;-68
2023/11/11 10:58:23;;;;;;;1999.90;999.90;;;;;;;;;;6242842;23;20046;-66
2023/11/11 11:00:50;;;;;;;1999.90;999.90;;;;;;;;;;6241367;23;20004;-65
2023/11/11 11:03:20;;;;;;;1999.90;999.90;;;;;;;;;;6242457;23;20011;-71
2023/11/11 11:05:47;;;;;;;1999.90;999.90;;;;;;;;;;6243903;23;20028;-69
2023/11/11 11:08:26;;;;;;;1999.90;999.90;;;;;;;;;;6243911;23;20004;-70
2023/11/11 11:11:12;;;;;;;1999.90;999.90;;;;;;;;;;6243619;22;20081;-69
2023/11/11 11:13:39;;;;;;;1999.90;999.90;;;;;;;;;;6243888;23;20004;-72
2023/11/11 11:16:08;;;;;;;1999.90;999.90;;;;;;;;;;6243849;23;20496;-72
2023/11/11 11:18:34;;;;;;;1999.90;999.90;;;;;;;;;;6243825;23;20000;-71
2023/11/11 11:21:03;;;;;;;1999.90;999.90;;;;;;;;;;6243430;23;20490;-69
2023/11/11 11:23:38;;;;;;;1999.90;999.90;;;;;;;;;;6243448;23;20007;-67
2023/11/11 11:26:04;;;;;;;1999.90;999.90;;;;;;;;;;6243634;23;20004;-69
2023/11/11 11:28:32;;;;;;;1999.90;999.90;;;;;;;;;;6244237;23;20008;-70
2023/11/11 11:30:59;;;;;;;1999.90;999.90;;;;;;;;;;6243722;23;19996;-68
2023/11/11 11:33:29;;;;;;;1999.90;999.90;;;;;;;;;;6243739;23;20395;-69
2023/11/11 11:36:01;;;;;;;1999.90;999.90;;;;;;;;;;6243804;23;20578;-68
2023/11/11 11:38:31;;;;;;;1999.90;999.90;;;;;;;;;;6243755;23;20000;-67
2023/11/11 11:41:13;;;;;;;1999.90;999.90;;;;;;;;;;6243565;23;20317;-67
2023/11/11 11:43:41;;;;;;;1999.90;999.90;;;;;;;;;;6243488;23;20502;-68
2023/11/11 11:46:07;;;;;;;1999.90;999.90;;;;;;;;;;6243952;23;20011;-69
2023/11/11 11:48:37;;;;;;;1999.90;999.90;;;;;;;;;;6243640;23;20392;-67
2023/11/11 11:51:04;;;;;;;1999.90;999.90;;;;;;;;;;6243443;23;20421;-68
2023/11/11 11:53:30;;;;;;;1999.90;999.90;;;;;;;;;;6243805;23;20007;-68
2023/11/11 11:55:57;;;;;;;1999.90;999.90;;;;;;;;;;6243530;23;20372;-68
2023/11/11 11:58:23;;;;;;;1999.90;999.90;;;;;;;;;;6243806;23;20004;-68
2023/11/11 12:00:49;;;;;;;1999.90;999.90;;;;;;;;;;6243486;23;20004;-68
2023/11/11 12:03:15;;;;;;;1999.90;999.90;;;;;;;;;;6243622;23;20047;-69
2023/11/11 12:05:41;;;;;;;1999.90;999.90;;;;;;;;;;6243549;23;20035;-68
2023/11/11 12:08:07;;;;;;;1999.90;999.90;;;;;;;;;;6243807;23;20004;-66
2023/11/11 12:10:46;;;;;;;1999.90;999.90;;;;;;;;;;6243455;23;20016;-67
2023/11/11 12:13:12;;;;;;;1999.90;999.90;;;;;;;;;;6243776;23;20432;-67
2023/11/11 12:15:39;;;;;;;1999.90;999.90;;;;;;;;;;6243130;23;20079;-67
2023/11/11 12:18:11;;;;;;;1999.90;999.90;;;;;;;;;;6242785;23;20008;-67
2023/11/11 12:20:43;;;;;;;1999.90;999.90;;;;;;;;;;6219740;23;20031;-66
2023/11/11 12:23:10;;;;;;;1999.90;999.90;;;;;;;;;;6243975;23;20000;-66
2023/11/11 12:25:42;;;;;;;1999.90;999.90;;;;;;;;;;6248981;23;20000;-66
2023/11/11 12:28:13;;;;;;;1999.90;999.90;;;;;;;;;;6226114;23;20042;-67
2023/11/11 12:30:39;;;;;;;1999.90;999.90;;;;;;;;;;6245653;23;20040;-66
2023/11/11 12:33:08;;;;;;;1999.90;999.90;;;;;;;;;;6247184;23;20000;-66
2023/11/11 12:35:41;;;;;;;1999.90;999.90;;;;;;;;;;6247497;23;20012;-66
2023/11/11 12:38:30;;;;;;;1999.90;999.90;;;;;;;;;;6251526;23;20059;-65
2023/11/11 12:40:59;;;;;;;1999.90;999.90;;;;;;;;;;6216978;23;20012;-68
2023/11/11 12:43:29;;;;;;;1999.90;999.90;;;;;;;;;;6246451;23;20090;-66
2023/11/11 12:45:57;;;;;;;1999.90;999.90;;;;;;;;;;6245911;23;20012;-68
2023/11/11 12:48:23;;;;;;;1999.90;999.90;;;;;;;;;;6244808;23;20102;-67
2023/11/11 12:50:52;;;;;;;1999.90;999.90;;;;;;;;;;6215760;23;20740;-64
2023/11/11 12:53:20;;;;;;;1999.90;999.90;;;;;;;;;;6242634;23;20349;-66
2023/11/11 12:55:47;;;;;;;1999.90;999.90;;;;;;;;;;6242645;23;20007;-65
2023/11/11 12:58:20;;;;;;;1999.90;999.90;;;;;;;;;;6243137;23;20011;-65
2023/11/11 13:00:48;;;;;;;1999.90;999.90;;;;;;;;;;6242334;23;20016;-65
2023/11/11 13:03:19;;;;;;;1999.90;999.90;;;;;;;;;;6242769;23;19999;-67
2023/11/11 13:05:49;;;;;;;1999.90;999.90;;;;;;;;;;6242582;23;20087;-66
2023/11/11 13:08:21;;;;;;;1999.90;999.90;;;;;;;;;;6242759;23;20008;-65
2023/11/11 13:10:47;;;;;;;1999.90;999.90;;;;;;;;;;6242593;23;20023;-65
2023/11/11 13:13:14;;;;;;;1999.90;999.90;;;;;;;;;;6242566;23;20000;-67
2023/11/11 13:15:42;;;;;;;1999.90;999.90;;;;;;;;;;6242666;23;20084;-67
2023/11/11 13:18:08;;;;;;;1999.90;999.90;;;;;;;;;;6243015;23;20305;-67
2023/11/11 13:20:35;;;;;;;1999.90;999.90;;;;;;;;;;6242601;23;20079;-68
2023/11/11 13:23:01;;;;;;;1999.90;999.90;;;;;;;;;;6242543;23;20007;-69
2023/11/11 13:25:27;;;;;;;1999.90;999.90;;;;;;;;;;6243023;23;20007;-67
2023/11/11 13:27:54;;;;;;;1999.90;999.90;;;;;;;;;;6241921;23;19996;-68
2023/11/11 13:30:20;;;;;;;1999.90;999.90;;;;;;;;;;6242813;23;20066;-67
2023/11/11 13:32:47;;;;;;;1999.90;999.90;;;;;;;;;;6242265;23;20000;-68
2023/11/11 13:35:16;;;;;;;1999.90;999.90;;;;;;;;;;6242806;23;20000;-66
2023/11/11 13:37:45;;;;;;;1999.90;999.90;;;;;;;;;;6242676;23;20071;-68
2023/11/11 13:40:28;;;;;;;1999.90;999.90;;;;;;;;;;6245634;23;20012;-68
2023/11/11 13:42:55;;;;;;;1999.90;999.90;;;;;;;;;;6220919;23;20000;-70
2023/11/11 13:45:23;;;;;;;1999.90;999.90;;;;;;;;;;6245268;23;20428;-67
2023/11/11 13:47:50;;;;;;;1999.90;999.90;;;;;;;;;;6242510;23;20000;-67
2023/11/11 13:50:17;;;;;;;1999.90;999.90;;;;;;;;;;6242642;23;20474;-69
2023/11/11 13:52:43;;;;;;;1999.90;999.90;;;;;;;;;;6242791;23;20000;-69
2023/11/11 13:55:09;;;;;;;1999.90;999.90;;;;;;;;;;6242685;23;20008;-69
2023/11/11 13:57:36;;;;;;;1999.90;999.90;;;;;;;;;;6242658;23;20011;-69
2023/11/11 14:00:03;;;;;;;1999.90;999.90;;;;;;;;;;6242860;23;20444;-69
2023/11/11 14:02:29;;;;;;;1999.90;999.90;;;;;;;;;;6242235;23;20416;-71
2023/11/11 14:04:56;;;;;;;1999.90;999.90;;;;;;;;;;6242297;23;20031;-69
2023/11/11 14:07:22;;;;;;;1999.90;999.90;;;;;;;;;;6242510;23;20083;-69
2023/11/11 14:09:48;;;;;;;1999.90;999.90;;;;;;;;;;6241975;23;20022;-70
2023/11/11 14:12:14;;;;;;;1999.90;999.90;;;;;;;;;;6242514;23;20376;-70
2023/11/11 14:14:40;;;;;;;1999.90;999.90;;;;;;;;;;6242587;23;20452;-70
2023/11/11 14:17:06;;;;;;;1999.90;999.90;;;;;;;;;;6242328;23;20480;-68
2023/11/11 14:19:32;;;;;;;1999.90;999.90;;;;;;;;;;6242396;23;20066;-69
2023/11/11 14:21:59;;;;;;;1999.90;999.90;;;;;;;;;;6242403;23;20011;-68
2023/11/11 14:24:25;;;;;;;1999.90;999.90;;;;;;;;;;6242906;23;20004;-71
2023/11/11 14:26:52;;;;;;;1999.90;999.90;;;;;;;;;;6242573;23;20122;-70
2023/11/11 14:29:18;;;;;;;1999.90;999.90;;;;;;;;;;6241754;23;20073;-68
2023/11/11 14:31:44;;;;;;;1999.90;999.90;;;;;;;;;;6242752;23;20000;-67
2023/11/11 14:34:11;;;;;;;1999.90;999.90;;;;;;;;;;6242196;23;20050;-67
2023/11/11 14:36:38;;;;;;;1999.90;999.90;;;;;;;;;;6242335;23;20075;-69
2023/11/11 14:39:04;;;;;;;1999.90;999.90;;;;;;;;;;6243881;23;20062;-68
2023/11/11 14:41:31;;;;;;;1999.90;999.90;;;;;;;;;;6244106;23;20004;-67
2023/11/11 14:43:57;;;;;;;1999.90;999.90;;;;;;;;;;6244150;23;20408;-67
2023/11/11 14:46:26;;;;;;;1999.90;999.90;;;;;;;;;;6244042;23;20008;-67
2023/11/11 14:48:52;;;;;;;1999.90;999.90;;;;;;;;;;6244009;23;20380;-68
2023/11/11 14:51:18;;;;;;;1999.90;999.90;;;;;;;;;;6244494;23;20010;-72
2023/11/11 14:53:44;;;;;;;1999.90;999.90;;;;;;;;;;6244213;23;20004;-69
2023/11/11 14:56:10;;;;;;;1999.90;999.90;;;;;;;;;;6243965;23;20417;-71
2023/11/11 14:58:36;;;;;;;1999.90;999.90;;;;;;;;;;6244181;23;20088;-68
2023/11/11 15:01:03;;;;;;;1999.90;999.90;;;;;;;;;;6244450;23;20000;-71
2023/11/11 15:03:31;;;;;;;1999.90;999.90;;;;;;;;;;6244140;23;20004;-71
2023/11/11 15:05:57;;;;;;;1999.90;999.90;;;;;;;;;;6244181;23;20028;-69
2023/11/11 15:08:24;;;;;;;1999.90;999.90;;;;;;;;;;6243668;23;20008;-69
2023/11/11 15:10:50;;;;;;;1999.90;999.90;;;;;;;;;;6243517;23;20027;-70
2023/11/11 15:13:16;;;;;;;1999.90;999.90;;;;;;;;;;6244163;23;20004;-70
2023/11/11 15:15:43;;;;;;;1999.90;999.90;;;;;;;;;;6217626;23;20012;-70
2023/11/11 15:18:09;;;;;;;1999.90;999.90;;;;;;;;;;6243585;23;20421;-71
2023/11/11 15:20:35;;;;;;;1999.90;999.90;;;;;;;;;;6244021;23;20457;-70
2023/11/11 15:23:09;;;;;;;1999.90;999.90;;;;;;;;;;6243991;23;20409;-72
2023/11/11 15:25:36;;;;;;;1999.90;999.90;;;;;;;;;;6243429;23;20015;-70
2023/11/11 15:28:02;;;;;;;1999.90;999.90;;;;;;;;;;6243684;23;20000;-67
2023/11/11 15:30:30;;;;;;;1999.90;999.90;;;;;;;;;;6243890;23;20012;-67
2023/11/11 15:32:56;;;;;;;1999.90;999.90;;;;;;;;;;6243901;23;20301;-68
2023/11/11 15:35:23;;;;;;;1999.90;999.90;;;;;;;;;;6242802;23;20012;-68
2023/11/11 15:37:52;;;;;;;1999.90;999.90;;;;;;;;;;6243627;23;20008;-67
2023/11/11 15:40:18;;;;;;;1999.90;999.90;;;;;;;;;;6242306;23;20037;-72
2023/11/11 15:42:44;;;;;;;1999.90;999.90;;;;;;;;;;6243753;23;20000;-71
2023/11/11 15:45:13;;;;;;;1999.90;999.90;;;;;;;;;;6243550;23;20004;-74
2023/11/11 15:47:39;;;;;;;1999.90;999.90;;;;;;;;;;6243461;23;20004;-72
2023/11/11 15:50:06;;;;;;;1999.90;999.90;;;;;;;;;;6243158;23;20099;-69
2023/11/11 15:52:32;;;;;;;1999.90;999.90;;;;;;;;;;6242034;23;20004;-72
2023/11/11 15:54:58;;;;;;;1999.90;999.90;;;;;;;;;;6242965;23;20355;-72
2023/11/11 15:57:25;;;;;;;1999.90;999.90;;;;;;;;;;6244282;23;20004;-72
2023/11/11 15:59:53;;;;;;;1999.90;999.90;;;;;;;;;;6215935;23;20008;-73
2023/11/11 16:02:21;;;;;;;1999.90;999.90;;;;;;;;;;6216473;23;20004;-67
2023/11/11 16:04:49;;;;;;;1999.90;999.90;;;;;;;;;;6242472;23;20001;-73
2023/11/11 16:07:15;;;;;;;1999.90;999.90;;;;;;;;;;6243949;23;20008;-73
2023/11/11 16:09:41;;;;;;;1999.90;999.90;;;;;;;;;;6243587;23;20048;-69
2023/11/11 16:12:08;;;;;;;1999.90;999.90;;;;;;;;;;6243640;23;20015;-79
2023/11/11 16:14:35;;;;;;;1999.90;999.90;;;;;;;;;;6216209;23;20095;-75
2023/11/11 16:17:01;;;;;;;1999.90;999.90;;;;;;;;;;6242856;23;20481;-66
2023/11/11 16:19:27;;;;;;;1999.90;999.90;;;;;;;;;;6242888;23;20428;-71
2023/11/11 16:21:53;;;;;;;1999.90;999.90;;;;;;;;;;6242653;23;20424;-72
2023/11/11 16:24:24;;;;;;;1999.90;999.90;;;;;;;;;;6246647;23;20050;-74
2023/11/11 16:26:51;;;;;;;;;;;;;;;;;;6250721;23;20054;-71
2023/11/11 16:29:17;;;;;;;1999.90;999.90;;;;;;;;;;6243328;23;19911;-71
2023/11/11 16:31:43;;;;;;;1999.90;999.90;;;;;;;;;;6242700;23;20064;-75
2023/11/11 16:34:10;;;;;;;1999.90;999.90;;;;;;;;;;6243230;23;20055;-75
2023/11/11 16:36:36;;;;;;;1999.90;999.90;;;;;;;;;;6242881;23;20007;-72
2023/11/11 16:39:06;;;;;;;1999.90;999.90;;;;;;;;;;6243215;23;20012;-73
2023/11/11 16:41:32;;;;;;;1999.90;999.90;;;;;;;;;;6244600;23;20011;-67
2023/11/11 16:44:00;;;;;;;1999.90;999.90;;;;;;;;;;6243153;23;20004;-73
2023/11/11 16:46:27;;;;;;;1999.90;999.90;;;;;;;;;;6246880;23;20000;-67
2023/11/11 16:48:53;;;;;;;1999.90;999.90;;;;;;;;;;6242887;23;20012;-71
2023/11/11 16:51:20;;;;;;;1999.90;999.90;;;;;;;;;;6243326;23;20459;-71
2023/11/11 16:53:46;;;;;;;1999.90;999.90;;;;;;;;;;6245381;23;20095;-69
2023/11/11 16:56:14;;;;;;;1999.90;999.90;;;;;;;;;;6243043;23;20000;-69
2023/11/11 16:58:40;;;;;;;1999.90;999.90;;;;;;;;;;6242631;23;20103;-67
2023/11/11 17:01:06;;;;;;;1999.90;999.90;;;;;;;;;;6243460;23;20015;-72
2023/11/11 17:03:34;;;;;;;1999.90;999.90;;;;;;;;;;6243060;23;20007;-69
2023/11/11 17:06:03;;;;;;;1999.90;999.90;;;;;;;;;;6243253;23;20058;-71
2023/11/11 17:08:31;;;;;;;1999.90;999.90;;;;;;;;;;6242530;23;20004;-64
2023/11/11 17:10:58;;;;;;;1999.90;999.90;;;;;;;;;;6242599;23;20055;-64
2023/11/11 17:13:25;;;;;;;1999.90;999.90;;;;;;;;;;6243384;23;20007;-65
2023/11/11 17:15:51;;;;;;;1999.90;999.90;;;;;;;;;;6242945;23;20011;-66
2023/11/11 17:18:17;;;;;;;1999.90;999.90;;;;;;;;;;6242855;23;20020;-64
2023/11/11 17:20:44;;;;;;;1999.90;999.90;;;;;;;;;;6242833;23;20000;-67
2023/11/11 17:23:10;;;;;;;1999.90;999.90;;;;;;;;;;6242691;23;20028;-68
2023/11/11 17:25:37;;;;;;;1999.90;999.90;;;;;;;;;;6242833;23;20000;-66
2023/11/11 17:28:04;;;;;;;1999.90;999.90;;;;;;;;;;6242848;23;20020;-67
2023/11/11 17:30:31;;;;;;;1999.90;999.90;;;;;;;;;;6242265;23;20015;-63
2023/11/11 17:32:58;;;;;;;1999.90;999.90;;;;;;;;;;6242811;23;19996;-66
2023/11/11 17:35:24;;;;;;;1999.90;999.90;;;;;;;;;;6243015;23;20030;-64
2023/11/11 17:37:50;;;;;;;1999.90;999.90;;;;;;;;;;6242452;23;20364;-63
2023/11/11 17:40:16;;;;;;;1999.90;999.90;;;;;;;;;;6242422;23;20372;-63
2023/11/11 17:42:42;;;;;;;1999.90;999.90;;;;;;;;;;6243074;23;20004;-66
2023/11/11 17:45:09;;;;;;;1999.90;999.90;;;;;;;;;;6242368;23;20000;-68
2023/11/11 17:47:35;;;;;;;1999.90;999.90;;;;;;;;;;6241812;23;20381;-68
2023/11/11 17:50:01;;;;;;;1999.90;999.90;;;;;;;;;;6242371;23;20016;-65
2023/11/11 17:52:28;;;;;;;1999.90;999.90;;;;;;;;;;6242469;23;20028;-67
2023/11/11 17:54:54;;;;;;;1999.90;999.90;;;;;;;;;;6242249;23;20016;-68
2023/11/11 17:57:21;;;;;;;1999.90;999.90;;;;;;;;;;6242767;23;20004;-70
2023/11/11 17:59:47;;;;;;;1999.90;999.90;;;;;;;;;;6241635;23;20442;-68
2023/11/11 18:02:13;;;;;;;1999.90;999.90;;;;;;;;;;6242500;23;20408;-66
2023/11/11 18:04:39;;;;;;;1999.90;999.90;;;;;;;;;;6242369;23;20337;-65
2023/11/11 18:07:05;;;;;;;1999.90;999.90;;;;;;;;;;6242228;23;20004;-66
2023/11/11 18:09:32;;;;;;;1999.90;999.90;;;;;;;;;;6242062;23;20020;-65
2023/11/11 18:11:58;;;;;;;1999.90;999.90;;;;;;;;;;6241902;23;20009;-66
2023/11/11 18:14:24;;;;;;;1999.90;999.90;;;;;;;;;;6244256;23;20004;-64
2023/11/11 18:16:50;;;;;;;1999.90;999.90;;;;;;;;;;6244265;23;20020;-65
2023/11/11 18:19:17;;;;;;;1999.90;999.90;;;;;;;;;;6244224;23;20008;-64
2023/11/11 18:21:43;;;;;;;1999.90;999.90;;;;;;;;;;6244499;23;20007;-65
2023/11/11 18:24:09;;;;;;;1999.90;999.90;;;;;;;;;;6244456;23;20532;-67
2023/11/11 18:26:36;;;;;;;1999.90;999.90;;;;;;;;;;6244417;23;20014;-67
2023/11/11 18:29:03;;;;;;;1999.90;999.90;;;;;;;;;;6244870;23;20027;-67
2023/11/11 18:31:29;;;;;;;1999.90;999.90;;;;;;;;;;6244461;23;20067;-66
2023/11/11 18:33:56;;;;;;;1999.90;999.90;;;;;;;;;;6244196;23;20066;-68
2023/11/11 18:36:22;;;;;;;1999.90;999.90;;;;;;;;;;6244479;23;20062;-69
2023/11/11 18:38:48;;;;;;;1999.90;999.90;;;;;;;;;;6244116;23;20075;-66
2023/11/11 18:41:15;;;;;;;1999.90;999.90;;;;;;;;;;6243548;23;20484;-64
2023/11/11 18:43:42;;;;;;;1999.90;999.90;;;;;;;;;;6244677;23;20023;-65
2023/11/11 18:46:14;;;;;;;1999.90;999.90;;;;;;;;;;6244027;23;20071;-65
2023/11/11 18:48:41;;;;;;;1999.90;999.90;;;;;;;;;;6243767;23;20653;-66
2023/11/11 18:51:10;;;;;;;1999.90;999.90;;;;;;;;;;6244406;23;20011;-62
2023/11/11 18:53:37;;;;;;;1999.90;999.90;;;;;;;;;;6244275;23;20004;-65
2023/11/11 18:56:03;;;;;;;1999.90;999.90;;;;;;;;;;6243799;23;20328;-63
2023/11/11 18:58:30;;;;;;;1999.90;999.90;;;;;;;;;;6243823;23;20003;-66
2023/11/11 19:00:57;;;;;;;1999.90;999.90;;;;;;;;;;6243948;23;20483;-66
2023/11/11 19:03:23;;;;;;;1999.90;999.90;;;;;;;;;;6243242;23;20023;-66
2023/11/11 19:05:49;;;;;;;1999.90;999.90;;;;;;;;;;6244408;23;20432;-64
2023/11/11 19:08:15;;;;;;;1999.90;999.90;;;;;;;;;;6243790;23;20063;-68
2023/11/11 19:10:42;;;;;;;1999.90;999.90;;;;;;;;;;6243601;23;20352;-69
2023/11/11 19:13:08;;;;;;;1999.90;999.90;;;;;;;;;;6243750;23;20051;-64
2023/11/11 19:15:34;;;;;;;1999.90;999.90;;;;;;;;;;6243491;23;20008;-66
2023/11/11 19:18:00;;;;;;;1999.90;999.90;;;;;;;;;;6243975;23;20020;-68
2023/11/11 19:20:26;;;;;;;1999.90;999.90;;;;;;;;;;6243881;23;20004;-67
2023/11/11 19:22:55;;;;;;;1999.90;999.90;;;;;;;;;;6243983;23;20431;-65
2023/11/11 19:25:21;;;;;;;1999.90;999.90;;;;;;;;;;6242319;23;20432;-64
2023/11/11 19:27:53;;;;;;;1999.90;999.90;;;;;;;;;;6243108;23;20038;-67
2023/11/11 19:30:22;;;;;;;1999.90;999.90;;;;;;;;;;6243914;23;20115;-68
2023/11/11 19:32:48;;;;;;;1999.90;999.90;;;;;;;;;;6244279;23;20522;-64
2023/11/11 19:35:14;;;;;;;1999.90;999.90;;;;;;;;;;6243601;23;20008;-68
2023/11/11 19:37:40;;;;;;;1999.90;999.90;;;;;;;;;;6243415;23;20000;-67
2023/11/11 19:40:08;;;;;;;1999.90;999.90;;;;;;;;;;6243525;23;20019;-67
2023/11/11 19:42:35;;;;;;;1999.90;999.90;;;;;;;;;;6243711;23;20012;-66
2023/11/11 19:45:01;;;;;;;1999.90;999.90;;;;;;;;;;6243507;23;20078;-68
2023/11/11 19:47:27;;;;;;;1999.90;999.90;;;;;;;;;;6243621;23;20018;-66
2023/11/11 19:49:54;;;;;;;1999.90;999.90;;;;;;;;;;6243891;23;20012;-68